CWUW

Dewar Lakes Airport

Canada
METAR CWUW 201100Z AUTO 04007KT ////SM //// SCT050 SCT100 BKN210 M20/M24 A2960
Observed Flight Rules
Nov-20 @ 11:00 UTC (49 minutes ago)
Wind Clouds
40° at 7 knots
  • Scattered at 5,000' AGL
  • Scattered at 10,000' AGL
  • Broken at 21,000' AGL
Temperatures Readings
Current -20°C / -4°F
Dewpoint -24°C / -11°F
Humidity 71%
Altimeter 29.6" Hg
Pressure 1002 hPa
Elevation 527
METAR CWUW 201100Z AUTO 04007KT ////SM //// SCT050 SCT100 BKN210 M20/M24 A2960
Observed Flight Rules
Nov-20 @ 11:00 UTC
(49 minutes ago)
Wind
40° at 7 knots
Clouds
  • Scattered at 5,000' AGL
  • Scattered at 10,000' AGL
  • Broken at 21,000' AGL
Temperature Dewpoint
-20°C / -4°F -24°C / -11°F
Humidity Altimeter Pressure
71% 29.6" Hg 1002 hPa